Terminal Aerodrome Forecast
Issued by NWS

Home | Current Version | Previous Version | Text Only | Print | Product List | Glossary On
Versions: 1 2 3 4 5 6 7 8 9 10 11 12 13
000
FTUS44 KLZK 281700
TAFLLQ
TAF
KLLQ 281740Z 2818/2918 13008KT P6SM SKC
     FM290000 17010KT P6SM SCT250 WS020/20035KT
     FM290900 21010KT P6SM SCT250 WS020/24045KT
     FM291500 26008KT P6SM SCT250=

USA.gov is the U.S. government's official web portal to all federal, state and local government web resources and services.